sensor_id;sensor_type;location;lat;lon;timestamp;P1;durP1;ratioP1;P2;durP2;ratioP2
21334;SDS011;10826;52.536;13.432;2022-10-16T00:01:24;3.37;;;2.80;;
21334;SDS011;10826;52.536;13.432;2022-10-16T00:03:55;2.53;;;2.30;;
21334;SDS011;10826;52.536;13.432;2022-10-16T00:06:23;2.60;;;2.50;;
21334;SDS011;10826;52.536;13.432;2022-10-16T00:08:51;2.20;;;2.10;;
21334;SDS011;10826;52.536;13.432;2022-10-16T00:11:24;2.27;;;2.17;;
21334;SDS011;10826;52.536;13.432;2022-10-16T00:14:02;3.23;;;2.40;;
21334;SDS011;10826;52.536;13.432;2022-10-16T00:16:33;2.63;;;2.43;;
21334;SDS011;10826;52.536;13.432;2022-10-16T00:18:59;2.57;;;2.30;;
21334;SDS011;10826;52.536;13.432;2022-10-16T00:21:27;2.10;;;2.00;;
21334;SDS011;10826;52.536;13.432;2022-10-16T00:23:56;2.47;;;2.37;;
21334;SDS011;10826;52.536;13.432;2022-10-16T00:26:25;2.60;;;2.40;;
21334;SDS011;10826;52.536;13.432;2022-10-16T00:28:52;2.57;;;2.10;;
21334;SDS011;10826;52.536;13.432;2022-10-16T00:31:18;2.67;;;2.03;;
21334;SDS011;10826;52.536;13.432;2022-10-16T00:33:47;2.17;;;2.07;;
21334;SDS011;10826;52.536;13.432;2022-10-16T00:36:16;2.03;;;1.93;;
21334;SDS011;10826;52.536;13.432;2022-10-16T00:38:46;2.03;;;1.93;;
21334;SDS011;10826;52.536;13.432;2022-10-16T00:41:13;2.40;;;2.20;;
21334;SDS011;10826;52.536;13.432;2022-10-16T00:46:21;1.90;;;1.80;;
21334;SDS011;10826;52.536;13.432;2022-10-16T00:51:30;1.90;;;1.80;;
21334;SDS011;10826;52.536;13.432;2022-10-16T00:54:08;2.17;;;1.83;;
21334;SDS011;10826;52.536;13.432;2022-10-16T00:56:40;2.03;;;1.93;;
21334;SDS011;10826;52.536;13.432;2022-10-16T00:59:11;1.97;;;1.87;;
21334;SDS011;10826;52.536;13.432;2022-10-16T01:01:46;1.70;;;1.60;;
21334;SDS011;10826;52.536;13.432;2022-10-16T01:04:11;1.90;;;1.70;;
21334;SDS011;10826;52.536;13.432;2022-10-16T01:12:40;2.00;;;1.90;;
21334;SDS011;10826;52.536;13.432;2022-10-16T01:15:23;1.70;;;1.60;;
21334;SDS011;10826;52.536;13.432;2022-10-16T01:21:06;1.80;;;1.70;;
21334;SDS011;10826;52.536;13.432;2022-10-16T01:23:49;1.60;;;1.50;;
21334;SDS011;10826;52.536;13.432;2022-10-16T01:27:07;1.80;;;1.70;;
21334;SDS011;10826;52.536;13.432;2022-10-16T01:38:07;2.00;;;1.90;;
21334;SDS011;10826;52.536;13.432;2022-10-16T01:40:42;1.90;;;1.80;;
21334;SDS011;10826;52.536;13.432;2022-10-16T01:43:20;2.00;;;1.87;;
21334;SDS011;10826;52.536;13.432;2022-10-16T01:46:00;1.60;;;1.50;;
21334;SDS011;10826;52.536;13.432;2022-10-16T01:48:28;1.90;;;1.80;;
21334;SDS011;10826;52.536;13.432;2022-10-16T01:51:05;1.60;;;1.50;;
21334;SDS011;10826;52.536;13.432;2022-10-16T01:53:37;1.60;;;1.50;;
21334;SDS011;10826;52.536;13.432;2022-10-16T01:56:07;3.10;;;1.70;;
21334;SDS011;10826;52.536;13.432;2022-10-16T01:58:43;2.00;;;1.90;;
21334;SDS011;10826;52.536;13.432;2022-10-16T02:01:17;1.60;;;1.50;;
21334;SDS011;10826;52.536;13.432;2022-10-16T02:03:48;1.77;;;1.50;;
21334;SDS011;10826;52.536;13.432;2022-10-16T02:06:21;1.53;;;1.43;;
21334;SDS011;10826;52.536;13.432;2022-10-16T02:08:47;1.70;;;1.60;;
21334;SDS011;10826;52.536;13.432;2022-10-16T02:11:14;1.90;;;1.80;;
21334;SDS011;10826;52.536;13.432;2022-10-16T02:13:41;2.80;;;1.90;;
21334;SDS011;10826;52.536;13.432;2022-10-16T02:16:13;1.43;;;1.37;;
21334;SDS011;10826;52.536;13.432;2022-10-16T02:18:40;2.57;;;1.90;;
21334;SDS011;10826;52.536;13.432;2022-10-16T02:21:25;1.97;;;1.87;;
21334;SDS011;10826;52.536;13.432;2022-10-16T02:26:35;1.30;;;1.30;;
21334;SDS011;10826;52.536;13.432;2022-10-16T02:29:15;1.40;;;1.40;;
21334;SDS011;10826;52.536;13.432;2022-10-16T02:31:49;1.90;;;1.80;;
21334;SDS011;10826;52.536;13.432;2022-10-16T02:34:21;1.60;;;1.60;;
21334;SDS011;10826;52.536;13.432;2022-10-16T02:36:52;2.47;;;2.07;;
21334;SDS011;10826;52.536;13.432;2022-10-16T02:39:20;1.63;;;1.47;;
21334;SDS011;10826;52.536;13.432;2022-10-16T02:41:46;1.40;;;1.20;;
21334;SDS011;10826;52.536;13.432;2022-10-16T02:44:13;2.07;;;1.67;;
21334;SDS011;10826;52.536;13.432;2022-10-16T02:46:39;2.00;;;1.90;;
21334;SDS011;10826;52.536;13.432;2022-10-16T02:49:05;1.70;;;1.60;;
21334;SDS011;10826;52.536;13.432;2022-10-16T02:51:31;1.67;;;1.57;;
21334;SDS011;10826;52.536;13.432;2022-10-16T02:53:56;1.57;;;1.53;;
21334;SDS011;10826;52.536;13.432;2022-10-16T02:56:22;2.00;;;1.70;;
21334;SDS011;10826;52.536;13.432;2022-10-16T02:58:49;1.67;;;1.57;;
21334;SDS011;10826;52.536;13.432;2022-10-16T03:01:15;1.80;;;1.70;;
21334;SDS011;10826;52.536;13.432;2022-10-16T03:03:42;2.40;;;1.77;;
21334;SDS011;10826;52.536;13.432;2022-10-16T03:06:08;1.50;;;1.47;;
21334;SDS011;10826;52.536;13.432;2022-10-16T03:08:34;1.70;;;1.60;;
21334;SDS011;10826;52.536;13.432;2022-10-16T03:10:59;1.87;;;1.77;;
21334;SDS011;10826;52.536;13.432;2022-10-16T03:13:26;2.20;;;1.60;;
21334;SDS011;10826;52.536;13.432;2022-10-16T03:15:51;1.70;;;1.60;;
21334;SDS011;10826;52.536;13.432;2022-10-16T03:18:17;1.50;;;1.40;;
21334;SDS011;10826;52.536;13.432;2022-10-16T03:20:43;1.70;;;1.70;;
21334;SDS011;10826;52.536;13.432;2022-10-16T03:23:09;1.30;;;1.30;;
21334;SDS011;10826;52.536;13.432;2022-10-16T03:25:35;1.67;;;1.57;;
21334;SDS011;10826;52.536;13.432;2022-10-16T03:28:01;2.00;;;1.90;;
21334;SDS011;10826;52.536;13.432;2022-10-16T03:30:28;1.50;;;1.33;;
21334;SDS011;10826;52.536;13.432;2022-10-16T03:32:54;1.57;;;1.47;;
21334;SDS011;10826;52.536;13.432;2022-10-16T03:35:21;1.50;;;1.50;;
21334;SDS011;10826;52.536;13.432;2022-10-16T03:37:48;2.27;;;2.07;;
21334;SDS011;10826;52.536;13.432;2022-10-16T03:40:15;2.63;;;1.87;;
21334;SDS011;10826;52.536;13.432;2022-10-16T03:42:42;2.87;;;2.37;;
21334;SDS011;10826;52.536;13.432;2022-10-16T03:45:09;3.20;;;1.93;;
21334;SDS011;10826;52.536;13.432;2022-10-16T03:47:36;3.10;;;2.13;;
21334;SDS011;10826;52.536;13.432;2022-10-16T03:50:02;2.00;;;1.90;;
21334;SDS011;10826;52.536;13.432;2022-10-16T03:52:30;1.90;;;1.80;;
21334;SDS011;10826;52.536;13.432;2022-10-16T03:54:57;4.83;;;2.07;;
21334;SDS011;10826;52.536;13.432;2022-10-16T03:57:23;3.37;;;1.80;;
21334;SDS011;10826;52.536;13.432;2022-10-16T03:59:49;2.93;;;1.90;;
21334;SDS011;10826;52.536;13.432;2022-10-16T04:02:15;1.90;;;1.80;;
21334;SDS011;10826;52.536;13.432;2022-10-16T04:04:41;2.30;;;2.20;;
21334;SDS011;10826;52.536;13.432;2022-10-16T04:07:06;2.00;;;1.90;;
21334;SDS011;10826;52.536;13.432;2022-10-16T04:09:33;2.90;;;2.20;;
21334;SDS011;10826;52.536;13.432;2022-10-16T04:11:58;1.80;;;1.70;;
21334;SDS011;10826;52.536;13.432;2022-10-16T04:14:24;3.00;;;1.90;;
21334;SDS011;10826;52.536;13.432;2022-10-16T04:16:50;3.73;;;2.40;;
21334;SDS011;10826;52.536;13.432;2022-10-16T04:19:16;3.87;;;1.80;;
21334;SDS011;10826;52.536;13.432;2022-10-16T04:21:42;2.17;;;2.07;;
21334;SDS011;10826;52.536;13.432;2022-10-16T04:24:08;1.83;;;1.73;;
21334;SDS011;10826;52.536;13.432;2022-10-16T04:26:34;2.70;;;1.63;;
21334;SDS011;10826;52.536;13.432;2022-10-16T04:29:00;2.60;;;1.60;;
21334;SDS011;10826;52.536;13.432;2022-10-16T04:31:26;2.73;;;1.90;;
21334;SDS011;10826;52.536;13.432;2022-10-16T04:33:51;2.07;;;1.97;;
21334;SDS011;10826;52.536;13.432;2022-10-16T04:36:17;2.07;;;1.97;;
21334;SDS011;10826;52.536;13.432;2022-10-16T04:38:43;2.57;;;1.87;;
21334;SDS011;10826;52.536;13.432;2022-10-16T04:41:09;3.27;;;2.10;;
21334;SDS011;10826;52.536;13.432;2022-10-16T04:43:35;2.03;;;1.93;;
21334;SDS011;10826;52.536;13.432;2022-10-16T04:46:00;2.67;;;1.73;;
21334;SDS011;10826;52.536;13.432;2022-10-16T04:48:26;4.23;;;2.63;;
21334;SDS011;10826;52.536;13.432;2022-10-16T04:50:52;1.80;;;1.70;;
21334;SDS011;10826;52.536;13.432;2022-10-16T04:53:18;1.93;;;1.83;;
21334;SDS011;10826;52.536;13.432;2022-10-16T04:55:44;2.10;;;2.00;;
21334;SDS011;10826;52.536;13.432;2022-10-16T04:58:10;2.00;;;1.90;;
21334;SDS011;10826;52.536;13.432;2022-10-16T05:00:36;2.13;;;1.90;;
21334;SDS011;10826;52.536;13.432;2022-10-16T05:03:03;1.93;;;1.83;;
21334;SDS011;10826;52.536;13.432;2022-10-16T05:05:32;2.00;;;1.90;;
21334;SDS011;10826;52.536;13.432;2022-10-16T05:07:59;3.80;;;2.07;;
21334;SDS011;10826;52.536;13.432;2022-10-16T05:10:24;2.10;;;2.00;;
21334;SDS011;10826;52.536;13.432;2022-10-16T05:12:50;1.93;;;1.83;;
21334;SDS011;10826;52.536;13.432;2022-10-16T05:15:16;2.37;;;2.27;;
21334;SDS011;10826;52.536;13.432;2022-10-16T05:17:43;1.97;;;1.87;;
21334;SDS011;10826;52.536;13.432;2022-10-16T05:20:10;2.00;;;1.90;;
21334;SDS011;10826;52.536;13.432;2022-10-16T05:22:37;2.70;;;2.03;;
21334;SDS011;10826;52.536;13.432;2022-10-16T05:25:03;2.07;;;1.87;;
21334;SDS011;10826;52.536;13.432;2022-10-16T05:27:30;2.20;;;2.10;;
21334;SDS011;10826;52.536;13.432;2022-10-16T05:29:56;2.30;;;2.20;;
21334;SDS011;10826;52.536;13.432;2022-10-16T05:32:22;4.00;;;1.87;;
21334;SDS011;10826;52.536;13.432;2022-10-16T05:34:47;2.63;;;2.40;;
21334;SDS011;10826;52.536;13.432;2022-10-16T05:37:13;2.17;;;2.07;;
21334;SDS011;10826;52.536;13.432;2022-10-16T05:39:39;5.00;;;2.13;;
21334;SDS011;10826;52.536;13.432;2022-10-16T05:42:05;2.40;;;2.20;;
21334;SDS011;10826;52.536;13.432;2022-10-16T05:44:31;2.60;;;2.40;;
21334;SDS011;10826;52.536;13.432;2022-10-16T05:46:57;2.60;;;2.40;;
21334;SDS011;10826;52.536;13.432;2022-10-16T05:49:23;2.63;;;2.43;;
21334;SDS011;10826;52.536;13.432;2022-10-16T05:51:49;2.80;;;2.60;;
21334;SDS011;10826;52.536;13.432;2022-10-16T05:54:15;2.67;;;2.47;;
21334;SDS011;10826;52.536;13.432;2022-10-16T05:56:41;2.53;;;2.17;;
21334;SDS011;10826;52.536;13.432;2022-10-16T05:59:07;2.33;;;2.23;;
21334;SDS011;10826;52.536;13.432;2022-10-16T06:01:33;2.80;;;2.40;;
21334;SDS011;10826;52.536;13.432;2022-10-16T06:04:00;2.13;;;2.03;;
21334;SDS011;10826;52.536;13.432;2022-10-16T06:06:27;2.50;;;2.30;;
21334;SDS011;10826;52.536;13.432;2022-10-16T06:08:55;2.60;;;2.40;;
21334;SDS011;10826;52.536;13.432;2022-10-16T06:11:27;2.33;;;2.13;;
21334;SDS011;10826;52.536;13.432;2022-10-16T06:13:56;2.57;;;2.37;;
21334;SDS011;10826;52.536;13.432;2022-10-16T06:16:27;2.97;;;2.77;;
21334;SDS011;10826;52.536;13.432;2022-10-16T06:18:55;2.83;;;2.50;;
21334;SDS011;10826;52.536;13.432;2022-10-16T06:21:22;2.10;;;2.00;;
21334;SDS011;10826;52.536;13.432;2022-10-16T06:23:50;3.60;;;2.30;;
21334;SDS011;10826;52.536;13.432;2022-10-16T06:26:18;2.80;;;2.60;;
21334;SDS011;10826;52.536;13.432;2022-10-16T06:28:46;4.20;;;2.20;;
21334;SDS011;10826;52.536;13.432;2022-10-16T06:31:13;3.47;;;2.50;;
21334;SDS011;10826;52.536;13.432;2022-10-16T06:33:40;3.00;;;2.30;;
21334;SDS011;10826;52.536;13.432;2022-10-16T06:36:10;2.80;;;2.60;;
21334;SDS011;10826;52.536;13.432;2022-10-16T06:38:39;2.37;;;2.27;;
21334;SDS011;10826;52.536;13.432;2022-10-16T06:41:06;1.97;;;1.87;;
21334;SDS011;10826;52.536;13.432;2022-10-16T06:43:34;1.90;;;1.80;;
21334;SDS011;10826;52.536;13.432;2022-10-16T06:46:01;2.90;;;2.40;;
21334;SDS011;10826;52.536;13.432;2022-10-16T06:48:28;2.60;;;2.40;;
21334;SDS011;10826;52.536;13.432;2022-10-16T06:53:37;2.93;;;2.20;;
21334;SDS011;10826;52.536;13.432;2022-10-16T06:56:14;2.50;;;2.30;;
21334;SDS011;10826;52.536;13.432;2022-10-16T06:58:44;2.00;;;1.90;;
21334;SDS011;10826;52.536;13.432;2022-10-16T07:01:12;2.57;;;2.37;;
21334;SDS011;10826;52.536;13.432;2022-10-16T07:03:40;2.07;;;1.97;;
21334;SDS011;10826;52.536;13.432;2022-10-16T07:06:08;9.70;;;1.90;;
21334;SDS011;10826;52.536;13.432;2022-10-16T07:08:39;2.30;;;2.20;;
21334;SDS011;10826;52.536;13.432;2022-10-16T07:11:11;2.00;;;1.90;;
21334;SDS011;10826;52.536;13.432;2022-10-16T07:13:40;2.00;;;1.90;;
21334;SDS011;10826;52.536;13.432;2022-10-16T07:16:10;1.90;;;1.80;;
21334;SDS011;10826;52.536;13.432;2022-10-16T07:18:39;1.80;;;1.70;;
21334;SDS011;10826;52.536;13.432;2022-10-16T07:21:08;2.27;;;2.17;;
21334;SDS011;10826;52.536;13.432;2022-10-16T07:23:35;2.40;;;1.90;;
21334;SDS011;10826;52.536;13.432;2022-10-16T07:26:01;2.07;;;1.70;;
21334;SDS011;10826;52.536;13.432;2022-10-16T07:28:29;2.10;;;1.60;;
21334;SDS011;10826;52.536;13.432;2022-10-16T07:31:07;2.00;;;1.37;;
21334;SDS011;10826;52.536;13.432;2022-10-16T07:33:37;1.80;;;1.70;;
21334;SDS011;10826;52.536;13.432;2022-10-16T07:36:05;1.90;;;1.80;;
21334;SDS011;10826;52.536;13.432;2022-10-16T07:38:31;1.67;;;1.67;;
21334;SDS011;10826;52.536;13.432;2022-10-16T07:40:58;1.80;;;1.70;;
21334;SDS011;10826;52.536;13.432;2022-10-16T07:43:26;2.00;;;1.90;;
21334;SDS011;10826;52.536;13.432;2022-10-16T07:45:52;1.90;;;1.80;;
21334;SDS011;10826;52.536;13.432;2022-10-16T07:48:20;5.03;;;2.27;;
21334;SDS011;10826;52.536;13.432;2022-10-16T07:50:48;3.90;;;2.77;;
21334;SDS011;10826;52.536;13.432;2022-10-16T07:53:14;2.63;;;2.17;;
21334;SDS011;10826;52.536;13.432;2022-10-16T07:55:41;1.50;;;1.40;;
21334;SDS011;10826;52.536;13.432;2022-10-16T07:58:07;1.70;;;1.60;;
21334;SDS011;10826;52.536;13.432;2022-10-16T08:00:35;2.37;;;1.40;;
21334;SDS011;10826;52.536;13.432;2022-10-16T08:03:02;1.47;;;1.37;;
21334;SDS011;10826;52.536;13.432;2022-10-16T08:05:29;1.83;;;1.73;;
21334;SDS011;10826;52.536;13.432;2022-10-16T08:07:58;1.70;;;1.60;;
21334;SDS011;10826;52.536;13.432;2022-10-16T08:10:25;1.70;;;1.50;;
21334;SDS011;10826;52.536;13.432;2022-10-16T08:12:54;1.60;;;1.50;;
21334;SDS011;10826;52.536;13.432;2022-10-16T08:15:20;2.60;;;1.50;;
21334;SDS011;10826;52.536;13.432;2022-10-16T08:18:01;1.90;;;1.80;;
21334;SDS011;10826;52.536;13.432;2022-10-16T08:20:30;1.80;;;1.70;;
21334;SDS011;10826;52.536;13.432;2022-10-16T08:22:58;3.17;;;2.50;;
21334;SDS011;10826;52.536;13.432;2022-10-16T08:25:26;1.83;;;1.73;;
21334;SDS011;10826;52.536;13.432;2022-10-16T08:27:54;1.93;;;1.83;;
21334;SDS011;10826;52.536;13.432;2022-10-16T08:30:22;1.87;;;1.50;;
21334;SDS011;10826;52.536;13.432;2022-10-16T08:32:49;3.33;;;1.90;;
21334;SDS011;10826;52.536;13.432;2022-10-16T08:35:15;2.33;;;1.73;;
21334;SDS011;10826;52.536;13.432;2022-10-16T08:37:42;2.30;;;2.07;;
21334;SDS011;10826;52.536;13.432;2022-10-16T08:40:18;2.17;;;1.77;;
21334;SDS011;10826;52.536;13.432;2022-10-16T08:42:59;1.70;;;1.60;;
21334;SDS011;10826;52.536;13.432;2022-10-16T08:46:04;2.20;;;2.00;;
21334;SDS011;10826;52.536;13.432;2022-10-16T08:48:57;1.63;;;1.30;;
21334;SDS011;10826;52.536;13.432;2022-10-16T08:51:32;1.80;;;1.70;;
21334;SDS011;10826;52.536;13.432;2022-10-16T08:54:44;1.50;;;1.40;;
21334;SDS011;10826;52.536;13.432;2022-10-16T08:57:09;1.67;;;1.57;;
21334;SDS011;10826;52.536;13.432;2022-10-16T08:59:39;1.70;;;1.60;;
21334;SDS011;10826;52.536;13.432;2022-10-16T09:02:52;1.83;;;1.70;;
21334;SDS011;10826;52.536;13.432;2022-10-16T09:05:10;1.80;;;1.70;;
21334;SDS011;10826;52.536;13.432;2022-10-16T09:08:35;4.87;;;1.90;;
21334;SDS011;10826;52.536;13.432;2022-10-16T09:11:28;2.17;;;1.70;;
21334;SDS011;10826;52.536;13.432;2022-10-16T09:17:24;1.63;;;1.53;;
21334;SDS011;10826;52.536;13.432;2022-10-16T09:22:45;1.83;;;1.30;;
21334;SDS011;10826;52.536;13.432;2022-10-16T09:25:13;1.50;;;1.40;;
21334;SDS011;10826;52.536;13.432;2022-10-16T09:27:47;2.40;;;1.53;;
21334;SDS011;10826;52.536;13.432;2022-10-16T09:30:19;3.30;;;1.43;;
21334;SDS011;10826;52.536;13.432;2022-10-16T09:32:50;1.20;;;1.10;;
21334;SDS011;10826;52.536;13.432;2022-10-16T09:35:22;2.40;;;1.50;;
21334;SDS011;10826;52.536;13.432;2022-10-16T09:38:00;1.20;;;1.20;;
21334;SDS011;10826;52.536;13.432;2022-10-16T09:40:27;1.97;;;1.30;;
21334;SDS011;10826;52.536;13.432;2022-10-16T09:43:20;3.30;;;1.50;;
21334;SDS011;10826;52.536;13.432;2022-10-16T09:45:59;1.40;;;1.30;;
21334;SDS011;10826;52.536;13.432;2022-10-16T09:48:42;4.60;;;1.33;;
21334;SDS011;10826;52.536;13.432;2022-10-16T09:51:31;4.00;;;1.40;;
21334;SDS011;10826;52.536;13.432;2022-10-16T09:54:13;2.33;;;1.67;;
21334;SDS011;10826;52.536;13.432;2022-10-16T09:56:45;0.90;;;0.90;;
21334;SDS011;10826;52.536;13.432;2022-10-16T09:59:15;1.93;;;1.10;;
21334;SDS011;10826;52.536;13.432;2022-10-16T10:01:45;1.57;;;1.10;;
21334;SDS011;10826;52.536;13.432;2022-10-16T10:04:16;1.57;;;1.50;;
21334;SDS011;10826;52.536;13.432;2022-10-16T10:06:45;2.30;;;1.40;;
21334;SDS011;10826;52.536;13.432;2022-10-16T10:12:05;2.00;;;1.10;;
21334;SDS011;10826;52.536;13.432;2022-10-16T10:14:48;1.30;;;1.20;;
21334;SDS011;10826;52.536;13.432;2022-10-16T10:17:22;5.20;;;1.33;;
21334;SDS011;10826;52.536;13.432;2022-10-16T10:19:55;1.10;;;1.10;;
21334;SDS011;10826;52.536;13.432;2022-10-16T10:22:32;1.97;;;1.40;;
21334;SDS011;10826;52.536;13.432;2022-10-16T10:39:14;3.10;;;1.30;;
21334;SDS011;10826;52.536;13.432;2022-10-16T10:47:36;2.23;;;1.20;;
21334;SDS011;10826;52.536;13.432;2022-10-16T10:53:33;1.50;;;1.40;;
21334;SDS011;10826;52.536;13.432;2022-10-16T10:59:32;2.73;;;1.20;;
21334;SDS011;10826;52.536;13.432;2022-10-16T11:02:41;0.90;;;0.90;;
21334;SDS011;10826;52.536;13.432;2022-10-16T11:08:17;1.30;;;1.20;;
21334;SDS011;10826;52.536;13.432;2022-10-16T11:16:21;1.20;;;1.10;;
21334;SDS011;10826;52.536;13.432;2022-10-16T11:22:04;0.80;;;0.70;;
21334;SDS011;10826;52.536;13.432;2022-10-16T11:30:59;1.57;;;1.20;;
21334;SDS011;10826;52.536;13.432;2022-10-16T11:37:05;1.83;;;1.07;;
21334;SDS011;10826;52.536;13.432;2022-10-16T11:39:42;1.10;;;0.87;;
21334;SDS011;10826;52.536;13.432;2022-10-16T11:42:21;1.43;;;1.07;;
21334;SDS011;10826;52.536;13.432;2022-10-16T11:47:54;1.53;;;0.97;;
21334;SDS011;10826;52.536;13.432;2022-10-16T11:50:50;1.10;;;1.00;;
21334;SDS011;10826;52.536;13.432;2022-10-16T11:56:15;1.93;;;1.03;;
21334;SDS011;10826;52.536;13.432;2022-10-16T12:07:12;1.07;;;1.07;;
21334;SDS011;10826;52.536;13.432;2022-10-16T12:09:49;0.80;;;0.80;;
21334;SDS011;10826;52.536;13.432;2022-10-16T12:12:24;2.60;;;1.13;;
21334;SDS011;10826;52.536;13.432;2022-10-16T12:17:46;1.70;;;1.13;;
21334;SDS011;10826;52.536;13.432;2022-10-16T12:23:01;1.37;;;1.00;;
21334;SDS011;10826;52.536;13.432;2022-10-16T12:30:40;1.83;;;1.00;;
21334;SDS011;10826;52.536;13.432;2022-10-16T12:33:21;2.97;;;1.33;;
21334;SDS011;10826;52.536;13.432;2022-10-16T12:35:54;2.30;;;1.10;;
21334;SDS011;10826;52.536;13.432;2022-10-16T12:41:04;1.50;;;1.07;;
21334;SDS011;10826;52.536;13.432;2022-10-16T12:43:41;2.43;;;0.77;;
21334;SDS011;10826;52.536;13.432;2022-10-16T12:48:41;2.33;;;0.80;;
21334;SDS011;10826;52.536;13.432;2022-10-16T12:51:52;0.90;;;0.80;;
21334;SDS011;10826;52.536;13.432;2022-10-16T12:56:53;0.60;;;0.60;;
21334;SDS011;10826;52.536;13.432;2022-10-16T13:00:36;3.23;;;0.70;;
21334;SDS011;10826;52.536;13.432;2022-10-16T13:06:33;0.70;;;0.70;;
21334;SDS011;10826;52.536;13.432;2022-10-16T13:09:21;1.07;;;0.60;;
21334;SDS011;10826;52.536;13.432;2022-10-16T13:15:11;0.80;;;0.80;;
21334;SDS011;10826;52.536;13.432;2022-10-16T13:20:53;2.87;;;1.07;;
21334;SDS011;10826;52.536;13.432;2022-10-16T13:29:39;0.70;;;0.70;;
21334;SDS011;10826;52.536;13.432;2022-10-16T13:32:07;0.60;;;0.60;;
21334;SDS011;10826;52.536;13.432;2022-10-16T13:34:45;1.57;;;0.80;;
21334;SDS011;10826;52.536;13.432;2022-10-16T13:37:21;0.80;;;0.80;;
21334;SDS011;10826;52.536;13.432;2022-10-16T13:39:48;1.70;;;1.00;;
21334;SDS011;10826;52.536;13.432;2022-10-16T13:42:27;0.87;;;0.87;;
21334;SDS011;10826;52.536;13.432;2022-10-16T13:44:55;1.50;;;1.37;;
21334;SDS011;10826;52.536;13.432;2022-10-16T13:50:04;2.00;;;0.97;;
21334;SDS011;10826;52.536;13.432;2022-10-16T13:52:36;0.60;;;0.60;;
21334;SDS011;10826;52.536;13.432;2022-10-16T13:55:16;0.60;;;0.60;;
21334;SDS011;10826;52.536;13.432;2022-10-16T13:57:44;0.67;;;0.67;;
21334;SDS011;10826;52.536;13.432;2022-10-16T14:00:23;1.70;;;0.90;;
21334;SDS011;10826;52.536;13.432;2022-10-16T14:02:57;1.00;;;1.00;;
21334;SDS011;10826;52.536;13.432;2022-10-16T14:05:29;1.00;;;0.90;;
21334;SDS011;10826;52.536;13.432;2022-10-16T14:07:55;2.57;;;0.90;;
21334;SDS011;10826;52.536;13.432;2022-10-16T14:10:24;0.90;;;0.90;;
21334;SDS011;10826;52.536;13.432;2022-10-16T14:13:05;2.20;;;0.87;;
21334;SDS011;10826;52.536;13.432;2022-10-16T14:15:36;3.90;;;0.97;;
21334;SDS011;10826;52.536;13.432;2022-10-16T14:18:02;1.03;;;0.93;;
21334;SDS011;10826;52.536;13.432;2022-10-16T14:20:30;1.23;;;0.90;;
21334;SDS011;10826;52.536;13.432;2022-10-16T14:23:02;0.50;;;0.50;;
21334;SDS011;10826;52.536;13.432;2022-10-16T14:25:44;0.93;;;0.93;;
21334;SDS011;10826;52.536;13.432;2022-10-16T14:28:18;1.67;;;0.70;;
21334;SDS011;10826;52.536;13.432;2022-10-16T14:30:56;0.60;;;0.60;;
21334;SDS011;10826;52.536;13.432;2022-10-16T14:36:00;0.80;;;0.80;;
21334;SDS011;10826;52.536;13.432;2022-10-16T14:38:40;1.93;;;0.93;;
21334;SDS011;10826;52.536;13.432;2022-10-16T14:41:13;0.83;;;0.83;;
21334;SDS011;10826;52.536;13.432;2022-10-16T14:43:41;0.50;;;0.50;;
21334;SDS011;10826;52.536;13.432;2022-10-16T14:46:15;0.90;;;0.90;;
21334;SDS011;10826;52.536;13.432;2022-10-16T14:48:46;0.93;;;0.90;;
21334;SDS011;10826;52.536;13.432;2022-10-16T14:51:17;0.70;;;0.70;;
21334;SDS011;10826;52.536;13.432;2022-10-16T14:53:45;0.57;;;0.57;;
21334;SDS011;10826;52.536;13.432;2022-10-16T14:56:22;1.37;;;0.90;;
21334;SDS011;10826;52.536;13.432;2022-10-16T14:58:50;0.87;;;0.87;;
21334;SDS011;10826;52.536;13.432;2022-10-16T15:01:17;0.90;;;0.90;;
21334;SDS011;10826;52.536;13.432;2022-10-16T15:03:44;0.73;;;0.73;;
21334;SDS011;10826;52.536;13.432;2022-10-16T15:06:11;0.70;;;0.70;;
21334;SDS011;10826;52.536;13.432;2022-10-16T15:08:39;2.17;;;0.90;;
21334;SDS011;10826;52.536;13.432;2022-10-16T15:11:07;0.87;;;0.80;;
21334;SDS011;10826;52.536;13.432;2022-10-16T15:13:38;0.60;;;0.60;;
21334;SDS011;10826;52.536;13.432;2022-10-16T15:16:04;1.10;;;0.90;;
21334;SDS011;10826;52.536;13.432;2022-10-16T15:18:35;0.70;;;0.70;;
21334;SDS011;10826;52.536;13.432;2022-10-16T15:21:01;3.73;;;1.47;;
21334;SDS011;10826;52.536;13.432;2022-10-16T15:23:27;2.73;;;1.07;;
21334;SDS011;10826;52.536;13.432;2022-10-16T15:25:54;3.73;;;0.97;;
21334;SDS011;10826;52.536;13.432;2022-10-16T15:28:22;0.93;;;0.93;;
21334;SDS011;10826;52.536;13.432;2022-10-16T15:30:54;1.60;;;1.50;;
21334;SDS011;10826;52.536;13.432;2022-10-16T15:33:26;1.90;;;0.80;;
21334;SDS011;10826;52.536;13.432;2022-10-16T15:35:57;3.03;;;1.00;;
21334;SDS011;10826;52.536;13.432;2022-10-16T15:38:24;2.07;;;0.97;;
21334;SDS011;10826;52.536;13.432;2022-10-16T15:40:52;2.10;;;1.17;;
21334;SDS011;10826;52.536;13.432;2022-10-16T15:43:18;1.97;;;1.87;;
21334;SDS011;10826;52.536;13.432;2022-10-16T15:45:44;1.90;;;1.73;;
21334;SDS011;10826;52.536;13.432;2022-10-16T15:48:26;1.90;;;1.13;;
21334;SDS011;10826;52.536;13.432;2022-10-16T15:50:54;1.77;;;1.50;;
21334;SDS011;10826;52.536;13.432;2022-10-16T15:53:20;3.00;;;1.80;;
21334;SDS011;10826;52.536;13.432;2022-10-16T15:55:46;1.30;;;1.23;;
21334;SDS011;10826;52.536;13.432;2022-10-16T15:58:12;2.93;;;2.70;;
21334;SDS011;10826;52.536;13.432;2022-10-16T16:00:39;2.40;;;2.20;;
21334;SDS011;10826;52.536;13.432;2022-10-16T16:03:05;1.87;;;1.50;;
21334;SDS011;10826;52.536;13.432;2022-10-16T16:05:31;2.67;;;1.33;;
21334;SDS011;10826;52.536;13.432;2022-10-16T16:07:58;1.30;;;1.20;;
21334;SDS011;10826;52.536;13.432;2022-10-16T16:10:24;2.70;;;1.90;;
21334;SDS011;10826;52.536;13.432;2022-10-16T16:12:50;6.13;;;1.70;;
21334;SDS011;10826;52.536;13.432;2022-10-16T16:15:20;1.77;;;1.67;;
21334;SDS011;10826;52.536;13.432;2022-10-16T16:17:47;1.60;;;1.50;;
21334;SDS011;10826;52.536;13.432;2022-10-16T16:20:14;1.80;;;1.70;;
21334;SDS011;10826;52.536;13.432;2022-10-16T16:22:40;1.47;;;1.47;;
21334;SDS011;10826;52.536;13.432;2022-10-16T16:25:07;2.40;;;1.50;;
21334;SDS011;10826;52.536;13.432;2022-10-16T16:27:34;1.80;;;1.70;;
21334;SDS011;10826;52.536;13.432;2022-10-16T16:30:00;2.10;;;1.90;;
21334;SDS011;10826;52.536;13.432;2022-10-16T16:32:28;1.87;;;1.73;;
21334;SDS011;10826;52.536;13.432;2022-10-16T16:34:54;1.80;;;1.70;;
21334;SDS011;10826;52.536;13.432;2022-10-16T16:37:20;2.27;;;2.17;;
21334;SDS011;10826;52.536;13.432;2022-10-16T16:39:46;2.20;;;2.10;;
21334;SDS011;10826;52.536;13.432;2022-10-16T16:42:12;3.23;;;2.37;;
21334;SDS011;10826;52.536;13.432;2022-10-16T16:44:38;3.33;;;2.70;;
21334;SDS011;10826;52.536;13.432;2022-10-16T16:47:04;6.33;;;2.80;;
21334;SDS011;10826;52.536;13.432;2022-10-16T16:49:31;3.87;;;2.73;;
21334;SDS011;10826;52.536;13.432;2022-10-16T16:51:57;4.57;;;3.73;;
21334;SDS011;10826;52.536;13.432;2022-10-16T16:54:23;4.10;;;2.67;;
21334;SDS011;10826;52.536;13.432;2022-10-16T16:56:49;5.10;;;3.17;;
21334;SDS011;10826;52.536;13.432;2022-10-16T16:59:17;2.87;;;2.60;;
21334;SDS011;10826;52.536;13.432;2022-10-16T17:01:46;5.67;;;2.70;;
21334;SDS011;10826;52.536;13.432;2022-10-16T17:04:13;4.23;;;2.93;;
21334;SDS011;10826;52.536;13.432;2022-10-16T17:06:46;6.20;;;2.90;;
21334;SDS011;10826;52.536;13.432;2022-10-16T17:09:24;3.10;;;2.80;;
21334;SDS011;10826;52.536;13.432;2022-10-16T17:11:51;5.63;;;2.60;;
21334;SDS011;10826;52.536;13.432;2022-10-16T17:14:17;3.17;;;2.57;;